createdAt,value
2023-02-03T00:02:13.242Z,2.47
2023-02-03T00:04:39.802Z,3.17
2023-02-03T00:07:06.670Z,3.13
2023-02-03T00:09:33.237Z,3.72
2023-02-03T00:12:02.478Z,4.10
2023-02-03T00:14:28.997Z,3.85
2023-02-03T00:16:55.532Z,3.30
2023-02-03T00:19:22.184Z,3.95
2023-02-03T00:21:51.489Z,3.95
2023-02-03T00:24:20.378Z,3.97
2023-02-03T00:26:48.613Z,4.35
2023-02-03T00:29:15.455Z,4.93
2023-02-03T00:31:42.032Z,4.97
2023-02-03T00:34:08.663Z,6.55
2023-02-03T00:36:43.149Z,7.82
2023-02-03T00:39:09.696Z,9.00
2023-02-03T00:41:39.508Z,8.73
2023-02-03T00:44:05.991Z,10.13
2023-02-03T00:46:32.575Z,10.77
2023-02-03T00:48:59.091Z,11.60
2023-02-03T00:51:29.089Z,11.77
2023-02-03T00:54:00.705Z,10.43
2023-02-03T00:56:27.140Z,12.77
2023-02-03T00:58:53.653Z,11.30
2023-02-03T01:01:20.237Z,12.00
2023-02-03T01:03:50.211Z,13.45
2023-02-03T01:06:20.498Z,14.80
2023-02-03T01:08:48.001Z,15.25
2023-02-03T01:11:23.004Z,16.05
2023-02-03T01:13:50.314Z,16.35
2023-02-03T01:16:19.934Z,15.93
2023-02-03T01:18:47.295Z,14.50
2023-02-03T01:21:20.539Z,16.83
2023-02-03T01:23:49.078Z,16.20
2023-02-03T01:26:18.941Z,16.65
2023-02-03T01:28:54.426Z,17.33
2023-02-03T01:31:30.724Z,17.20
2023-02-03T01:34:01.325Z,17.58
2023-02-03T01:36:30.223Z,16.70
2023-02-03T01:38:57.083Z,18.48
2023-02-03T01:41:27.339Z,18.92
2023-02-03T01:43:56.587Z,18.50
2023-02-03T01:46:38.852Z,17.65
2023-02-03T01:49:19.797Z,16.70
2023-02-03T01:51:50.268Z,18.20
2023-02-03T01:54:26.487Z,19.52
2023-02-03T01:57:02.032Z,18.35
2023-02-03T01:59:31.931Z,18.98
2023-02-03T02:01:59.562Z,19.73
2023-02-03T02:04:36.737Z,18.48
2023-02-03T02:07:04.067Z,15.77
2023-02-03T02:09:30.579Z,19.35
2023-02-03T02:12:03.592Z,19.55
2023-02-03T02:14:30.538Z,17.88
2023-02-03T02:17:23.804Z,19.35
2023-02-03T02:20:16.242Z,18.77
2023-02-03T02:22:54.620Z,15.27
2023-02-03T02:25:42.871Z,19.00
2023-02-03T02:28:17.217Z,18.27
2023-02-03T02:31:24.801Z,17.38
2023-02-03T02:33:51.370Z,18.25
2023-02-03T02:36:51.824Z,17.73
2023-02-03T02:39:31.063Z,17.55
2023-02-03T02:42:15.956Z,17.65
2023-02-03T02:44:49.565Z,17.80
2023-02-03T02:47:19.143Z,18.48
2023-02-03T02:49:54.298Z,17.92
2023-02-03T02:52:23.693Z,17.83
2023-02-03T02:54:54.593Z,18.75
2023-02-03T02:57:24.762Z,18.83
2023-02-03T02:59:51.235Z,18.25
2023-02-03T03:02:18.247Z,15.73
2023-02-03T03:04:47.602Z,17.50
2023-02-03T03:07:21.421Z,20.17
2023-02-03T03:09:54.554Z,18.40
2023-02-03T03:12:29.419Z,20.55
2023-02-03T03:15:02.828Z,19.30
2023-02-03T03:17:33.999Z,20.92
2023-02-03T03:20:06.063Z,20.27
2023-02-03T03:22:40.238Z,19.35
2023-02-03T03:25:12.606Z,16.08
2023-02-03T03:27:45.041Z,18.15
2023-02-03T03:30:21.845Z,17.20
2023-02-03T03:32:49.011Z,17.10
2023-02-03T03:35:16.261Z,16.80
2023-02-03T03:37:55.404Z,15.77
2023-02-03T03:40:30.231Z,18.45
2023-02-03T03:43:02.611Z,17.55
2023-02-03T03:45:41.035Z,16.98
2023-02-03T03:48:19.510Z,18.17
2023-02-03T03:50:58.250Z,17.77
2023-02-03T03:53:29.055Z,16.60
2023-02-03T03:55:56.928Z,18.08
2023-02-03T03:58:29.805Z,17.13
2023-02-03T04:00:59.769Z,14.00
2023-02-03T04:03:35.281Z,17.85
2023-02-03T04:06:04.770Z,16.45
2023-02-03T04:08:31.288Z,17.02
2023-02-03T04:10:57.749Z,13.63
2023-02-03T04:13:24.208Z,16.65
2023-02-03T04:15:50.712Z,16.80
2023-02-03T04:18:17.515Z,16.20
2023-02-03T04:20:44.149Z,16.00
2023-02-03T04:23:10.916Z,16.90
2023-02-03T04:25:37.517Z,16.67
2023-02-03T04:28:04.420Z,15.30
2023-02-03T04:30:30.943Z,15.45
2023-02-03T04:32:57.636Z,15.43
2023-02-03T04:35:24.254Z,13.52
2023-02-03T04:37:50.739Z,13.75
2023-02-03T04:40:17.650Z,13.88
2023-02-03T04:42:44.213Z,13.18
2023-02-03T04:45:12.088Z,13.88
2023-02-03T04:47:39.426Z,12.75
2023-02-03T04:50:06.439Z,11.80
2023-02-03T04:52:32.988Z,12.27
2023-02-03T04:54:59.478Z,10.27
2023-02-03T04:57:25.918Z,12.77
2023-02-03T04:59:52.425Z,12.70
2023-02-03T05:02:18.899Z,11.45
2023-02-03T05:04:45.368Z,11.27
2023-02-03T05:07:12.010Z,11.07
2023-02-03T05:09:41.310Z,8.68
2023-02-03T05:12:07.828Z,11.45
2023-02-03T05:14:34.282Z,12.38
2023-02-03T05:17:00.752Z,12.80
2023-02-03T05:19:27.299Z,11.18
2023-02-03T05:21:53.803Z,11.45
2023-02-03T05:24:20.293Z,11.20
2023-02-03T05:26:46.786Z,11.80
2023-02-03T05:29:13.255Z,12.27
2023-02-03T05:31:39.828Z,11.77
2023-02-03T05:34:06.358Z,11.18
2023-02-03T05:36:32.842Z,9.95
2023-02-03T05:38:59.334Z,10.63
2023-02-03T05:41:44.285Z,11.70
2023-02-03T05:44:10.876Z,11.80
2023-02-03T05:46:37.348Z,10.75
2023-02-03T05:49:03.822Z,10.45
2023-02-03T05:51:30.328Z,11.15
2023-02-03T05:53:56.752Z,9.32
2023-02-03T05:56:23.262Z,10.60
2023-02-03T05:58:53.112Z,8.02
2023-02-03T06:01:20.009Z,10.98
2023-02-03T06:03:47.764Z,10.25
2023-02-03T06:06:15.103Z,9.60
2023-02-03T06:08:41.637Z,10.70
2023-02-03T06:11:08.334Z,10.15
2023-02-03T06:13:35.031Z,8.48
2023-02-03T06:16:01.602Z,10.10
2023-02-03T06:18:28.120Z,11.40
2023-02-03T06:20:54.593Z,11.10
2023-02-03T06:23:21.326Z,9.68
2023-02-03T06:25:48.983Z,8.40
2023-02-03T06:28:15.641Z,9.55
2023-02-03T06:30:43.037Z,9.73
2023-02-03T06:33:10.066Z,9.73
2023-02-03T06:35:37.956Z,8.93
2023-02-03T06:38:04.446Z,9.45
2023-02-03T06:40:31.198Z,8.85
2023-02-03T06:42:57.840Z,10.10
2023-02-03T06:45:24.927Z,9.70
2023-02-03T06:47:51.606Z,9.48
2023-02-03T06:50:18.296Z,9.57
2023-02-03T06:52:44.997Z,9.43
2023-02-03T06:55:11.771Z,9.18
2023-02-03T06:57:46.765Z,8.95
2023-02-03T07:00:18.176Z,8.10
2023-02-03T07:05:12.007Z,9.98
2023-02-03T07:07:39.520Z,10.00
2023-02-03T07:10:06.584Z,9.20
2023-02-03T07:12:33.085Z,9.02
2023-02-03T07:14:59.593Z,9.30
2023-02-03T07:17:26.168Z,10.82
2023-02-03T07:19:56.078Z,9.68
2023-02-03T07:22:22.573Z,10.75
2023-02-03T07:24:49.084Z,8.80
2023-02-03T07:27:15.581Z,10.00
2023-02-03T07:29:42.052Z,9.65
2023-02-03T07:32:08.741Z,9.95
2023-02-03T07:34:35.376Z,9.77
2023-02-03T07:37:02.136Z,9.07
2023-02-03T07:39:28.665Z,9.48
2023-02-03T07:41:55.153Z,9.93
2023-02-03T07:44:21.658Z,10.07
2023-02-03T07:46:48.200Z,9.07
2023-02-03T07:49:15.270Z,7.85
2023-02-03T07:51:41.743Z,9.85
2023-02-03T07:54:08.415Z,6.85
2023-02-03T07:56:34.970Z,8.35
2023-02-03T07:59:01.447Z,7.97
2023-02-03T08:01:28.015Z,7.35
2023-02-03T08:03:55.344Z,7.00
2023-02-03T08:06:22.581Z,7.03
2023-02-03T08:08:49.042Z,7.00
2023-02-03T08:11:15.585Z,5.30
2023-02-03T08:13:42.044Z,6.22
2023-02-03T08:16:08.663Z,6.10
2023-02-03T08:18:35.192Z,5.82
2023-02-03T08:21:03.613Z,5.65
2023-02-03T08:23:30.996Z,5.13
2023-02-03T08:25:57.472Z,4.70
2023-02-03T08:28:24.004Z,4.05
2023-02-03T08:30:51.045Z,4.40
2023-02-03T08:33:17.645Z,4.30
2023-02-03T08:35:49.682Z,4.35
2023-02-03T08:38:16.727Z,3.95
2023-02-03T08:40:43.432Z,3.80
2023-02-03T08:43:11.364Z,3.85
2023-02-03T08:45:40.356Z,3.47
2023-02-03T08:48:07.022Z,3.35
2023-02-03T08:50:33.520Z,3.10
2023-02-03T08:53:00.022Z,2.38
2023-02-03T08:55:26.632Z,2.50
2023-02-03T08:57:53.112Z,2.60
2023-02-03T09:00:20.176Z,3.00
2023-02-03T09:02:46.621Z,3.00
2023-02-03T09:05:15.943Z,2.78
2023-02-03T09:07:42.443Z,1.95
2023-02-03T09:10:09.381Z,2.00
2023-02-03T09:12:36.323Z,2.17
2023-02-03T09:15:02.874Z,1.95
2023-02-03T09:17:29.322Z,2.20
2023-02-03T09:19:55.874Z,2.28
2023-02-03T09:22:22.391Z,2.00
2023-02-03T09:24:51.341Z,2.13
2023-02-03T09:27:17.889Z,1.90
2023-02-03T09:29:44.357Z,2.33
2023-02-03T09:32:11.106Z,2.20
2023-02-03T09:34:39.758Z,2.10
2023-02-03T09:37:06.263Z,2.45
2023-02-03T09:39:32.912Z,2.40
2023-02-03T09:42:14.576Z,2.10
2023-02-03T09:44:58.423Z,2.22
2023-02-03T09:47:28.963Z,2.22
2023-02-03T09:50:01.890Z,1.75
2023-02-03T09:52:33.224Z,2.40
2023-02-03T09:55:05.642Z,2.38
2023-02-03T09:57:40.489Z,2.22
2023-02-03T10:00:20.718Z,2.50
2023-02-03T10:03:00.716Z,2.55
2023-02-03T10:05:33.340Z,2.83
2023-02-03T10:08:58.456Z,3.28
2023-02-03T10:11:43.647Z,2.90
2023-02-03T10:14:32.947Z,3.20
2023-02-03T10:17:12.435Z,3.47
2023-02-03T10:19:48.378Z,3.63
2023-02-03T10:22:22.937Z,3.58
2023-02-03T10:25:17.017Z,3.92
2023-02-03T10:27:44.044Z,3.72
2023-02-03T10:30:24.248Z,3.65
2023-02-03T10:33:16.335Z,2.42
2023-02-03T10:35:56.422Z,3.72
2023-02-03T10:39:01.705Z,3.28
2023-02-03T10:41:30.253Z,2.40
2023-02-03T10:43:58.361Z,2.30
2023-02-03T10:46:29.633Z,2.83
2023-02-03T10:48:56.583Z,2.80
2023-02-03T10:51:24.258Z,3.25
2023-02-03T10:53:53.482Z,2.88
2023-02-03T10:56:26.991Z,2.08
2023-02-03T10:58:56.800Z,1.90
2023-02-03T11:01:45.008Z,1.30
2023-02-03T11:04:31.708Z,1.60
2023-02-03T11:07:23.000Z,1.40
2023-02-03T11:09:49.483Z,1.00
2023-02-03T11:12:18.906Z,1.27
2023-02-03T11:14:48.724Z,1.55
2023-02-03T11:17:18.610Z,1.60
2023-02-03T11:19:48.334Z,1.23
2023-02-03T11:22:28.827Z,1.58
2023-02-03T11:24:56.369Z,1.27
2023-02-03T11:27:24.908Z,1.45
2023-02-03T11:30:07.118Z,1.90
2023-02-03T11:32:36.831Z,1.80
2023-02-03T11:35:24.471Z,1.85
2023-02-03T11:37:56.387Z,1.80
2023-02-03T11:40:26.392Z,2.72
2023-02-03T11:42:53.017Z,1.98
2023-02-03T11:45:26.706Z,1.88
2023-02-03T11:47:57.673Z,2.10
2023-02-03T11:50:45.447Z,2.28
2023-02-03T11:53:20.908Z,2.08
2023-02-03T11:56:11.115Z,2.22
2023-02-03T11:58:44.652Z,2.83
2023-02-03T12:01:26.443Z,1.90
2023-02-03T12:04:10.363Z,1.90
2023-02-03T12:06:57.904Z,2.63
2023-02-03T12:09:40.479Z,2.92
2023-02-03T12:12:13.615Z,2.58
2023-02-03T12:14:49.192Z,2.70
2023-02-03T12:17:40.159Z,2.83
2023-02-03T12:20:25.212Z,2.83
2023-02-03T12:23:19.067Z,3.30
2023-02-03T12:26:00.755Z,3.60
2023-02-03T12:28:40.479Z,2.83
2023-02-03T12:31:19.079Z,3.15
2023-02-03T12:33:57.453Z,2.97
2023-02-03T12:36:32.888Z,3.08
2023-02-03T12:39:06.355Z,3.85
2023-02-03T12:41:38.052Z,3.40
2023-02-03T12:44:33.297Z,3.45
2023-02-03T12:47:06.156Z,4.45
2023-02-03T12:49:46.150Z,3.28
2023-02-03T12:52:23.104Z,3.58
2023-02-03T12:55:08.712Z,4.07
2023-02-03T12:57:55.061Z,4.05
2023-02-03T13:00:37.213Z,4.13
2023-02-03T13:05:56.411Z,5.13
2023-02-03T13:08:31.506Z,4.25
2023-02-03T13:11:10.159Z,3.92
2023-02-03T13:13:45.618Z,3.33
2023-02-03T13:16:15.795Z,4.55
2023-02-03T13:18:47.922Z,4.00
2023-02-03T13:21:14.422Z,3.72
2023-02-03T13:23:53.689Z,4.45
2023-02-03T13:26:38.285Z,4.13
2023-02-03T13:29:08.052Z,3.95
2023-02-03T13:31:52.475Z,4.75
2023-02-03T13:34:36.496Z,4.95
2023-02-03T13:37:31.117Z,3.17
2023-02-03T13:40:16.947Z,4.68
2023-02-03T13:42:52.532Z,4.30
2023-02-03T13:45:33.889Z,4.90
2023-02-03T13:48:14.816Z,5.07
2023-02-03T13:50:41.745Z,4.60
2023-02-03T13:53:17.970Z,3.60
2023-02-03T13:55:57.884Z,4.32
2023-02-03T13:58:33.847Z,4.13
2023-02-03T14:01:28.429Z,4.22
2023-02-03T14:03:55.738Z,4.43
2023-02-03T14:06:40.624Z,3.50
2023-02-03T14:09:34.571Z,4.68
2023-02-03T14:12:16.103Z,4.10
2023-02-03T14:15:03.151Z,4.85
2023-02-03T14:17:35.956Z,4.78
2023-02-03T14:20:25.299Z,4.03
2023-02-03T14:23:06.492Z,4.82
2023-02-03T14:25:44.335Z,4.73
2023-02-03T14:28:14.835Z,4.85
2023-02-03T14:31:11.849Z,5.32
2023-02-03T14:33:55.195Z,4.70
2023-02-03T14:36:31.408Z,3.58
2023-02-03T14:39:01.595Z,4.40
2023-02-03T14:42:09.558Z,4.47
2023-02-03T14:45:08.255Z,3.90
2023-02-03T14:47:37.464Z,4.75
2023-02-03T14:50:32.367Z,5.18
2023-02-03T14:52:58.796Z,3.50
2023-02-03T14:55:37.664Z,4.13
2023-02-03T14:58:24.979Z,4.38
2023-02-03T15:00:52.681Z,4.82
2023-02-03T15:03:22.752Z,4.00
2023-02-03T15:05:55.176Z,3.42
2023-02-03T15:08:42.805Z,3.33
2023-02-03T15:11:16.945Z,3.50
2023-02-03T15:13:43.437Z,4.13
2023-02-03T15:16:16.918Z,4.57
2023-02-03T15:18:43.592Z,4.25
2023-02-03T15:21:17.773Z,3.95
2023-02-03T15:23:48.449Z,2.92
2023-02-03T15:26:19.804Z,4.68
2023-02-03T15:29:04.088Z,4.65
2023-02-03T15:31:39.069Z,5.13
2023-02-03T15:34:27.001Z,3.38
2023-02-03T15:36:57.535Z,4.72
2023-02-03T15:39:42.991Z,4.30
2023-02-03T15:42:22.934Z,4.80
2023-02-03T15:45:16.062Z,5.50
2023-02-03T15:47:55.398Z,5.30
2023-02-03T15:50:30.985Z,4.82
2023-02-03T15:53:04.984Z,5.15
2023-02-03T15:55:41.917Z,3.90
2023-02-03T15:58:23.479Z,5.18
2023-02-03T16:00:54.041Z,5.75
2023-02-03T16:03:35.941Z,4.50
2023-02-03T16:06:30.370Z,4.80
2023-02-03T16:08:59.488Z,5.40
2023-02-03T16:11:28.687Z,4.40
2023-02-03T16:13:57.020Z,3.88
2023-02-03T16:16:32.527Z,5.20
2023-02-03T16:19:03.799Z,6.55
2023-02-03T16:21:56.806Z,5.03
2023-02-03T16:24:32.331Z,5.18
2023-02-03T16:27:20.409Z,3.90
2023-02-03T16:30:05.932Z,3.88
2023-02-03T16:32:51.152Z,3.30
2023-02-03T16:35:36.002Z,4.43
2023-02-03T16:38:26.563Z,4.40
2023-02-03T16:41:11.597Z,4.55
2023-02-03T16:43:56.619Z,4.40
2023-02-03T16:46:41.370Z,4.20
2023-02-03T16:49:26.336Z,5.05
2023-02-03T16:51:52.780Z,4.63
2023-02-03T16:54:19.305Z,4.53
2023-02-03T16:56:45.800Z,5.28
2023-02-03T16:59:12.292Z,4.80
2023-02-03T17:01:39.223Z,4.88
2023-02-03T17:04:05.863Z,5.63
2023-02-03T17:06:34.025Z,5.40
2023-02-03T17:09:00.525Z,4.13
2023-02-03T17:11:27.171Z,4.85
2023-02-03T17:13:53.881Z,4.65
2023-02-03T17:16:24.550Z,3.63
2023-02-03T17:18:51.392Z,5.40
2023-02-03T17:21:27.365Z,4.70
2023-02-03T17:23:54.369Z,4.13
2023-02-03T17:26:20.946Z,4.55
2023-02-03T17:28:47.376Z,5.95
2023-02-03T17:31:17.385Z,5.68
2023-02-03T17:33:45.819Z,5.00
2023-02-03T17:36:15.982Z,5.10
2023-02-03T17:55:19.045Z,4.35
2023-02-03T17:57:45.663Z,4.85
2023-02-03T18:00:12.544Z,4.95
2023-02-03T18:02:39.707Z,5.85
2023-02-03T18:05:06.798Z,4.70
2023-02-03T18:07:33.330Z,4.47
2023-02-03T18:09:59.760Z,4.85
2023-02-03T18:12:26.238Z,6.15
2023-02-03T18:14:52.767Z,3.95
2023-02-03T18:17:19.301Z,5.40
2023-02-03T18:19:49.208Z,4.45
2023-02-03T18:22:21.928Z,4.57
2023-02-03T18:24:51.695Z,4.65
2023-02-03T18:27:19.126Z,5.10
2023-02-03T18:29:47.501Z,4.32
2023-02-03T18:32:16.154Z,4.80
2023-02-03T18:34:42.706Z,4.88
2023-02-03T18:37:09.297Z,5.50
2023-02-03T18:39:36.003Z,5.20
2023-02-03T18:42:03.081Z,5.05
2023-02-03T18:44:31.689Z,5.43
2023-02-03T18:47:06.422Z,5.07
2023-02-03T18:49:34.534Z,4.70
2023-02-03T18:52:01.100Z,5.85
2023-02-03T18:54:29.658Z,5.47
2023-02-03T18:56:58.884Z,5.32
2023-02-03T18:59:26.062Z,5.22
2023-02-03T19:01:52.715Z,5.32
2023-02-03T19:04:19.279Z,5.25
2023-02-03T19:06:48.628Z,4.60
2023-02-03T19:09:17.857Z,5.25
2023-02-03T19:11:44.735Z,4.97
2023-02-03T19:14:16.498Z,5.40
2023-02-03T19:16:43.692Z,5.18
2023-02-03T19:19:12.580Z,5.38
2023-02-03T19:21:39.092Z,5.43
2023-02-03T19:24:05.958Z,5.15
2023-02-03T19:26:32.477Z,5.32
2023-02-03T19:28:58.930Z,4.60
2023-02-03T19:31:25.616Z,5.55
2023-02-03T19:33:58.694Z,4.85
2023-02-03T19:36:27.132Z,5.68
2023-02-03T19:38:56.808Z,4.70
2023-02-03T19:41:25.671Z,5.60
2023-02-03T19:43:52.189Z,5.13
2023-02-03T19:46:21.596Z,6.25
2023-02-03T19:48:48.692Z,4.82
2023-02-03T19:51:15.416Z,6.00
2023-02-03T19:53:41.961Z,3.30
2023-02-03T19:56:08.532Z,5.25
2023-02-03T19:58:35.027Z,4.82
2023-02-03T20:01:01.560Z,6.28
2023-02-03T20:03:28.025Z,4.40
2023-02-03T20:05:54.475Z,5.32
2023-02-03T20:08:21.011Z,4.05
2023-02-03T20:10:47.489Z,5.65
2023-02-03T20:13:14.691Z,5.25
2023-02-03T20:15:41.797Z,5.43
2023-02-03T20:18:08.695Z,5.22
2023-02-03T20:20:35.732Z,4.97
2023-02-03T20:23:02.264Z,5.40
2023-02-03T20:25:28.763Z,5.43
2023-02-03T20:27:57.049Z,5.20
2023-02-03T20:30:23.621Z,5.50
2023-02-03T20:32:50.152Z,5.72
2023-02-03T20:35:17.212Z,5.38
2023-02-03T20:37:43.762Z,5.57
2023-02-03T20:40:16.950Z,6.53
2023-02-03T20:42:43.529Z,5.95
2023-02-03T20:45:17.629Z,5.68
2023-02-03T20:47:44.933Z,5.85
2023-02-03T20:50:18.260Z,5.13
2023-02-03T20:52:49.985Z,4.75
2023-02-03T20:55:22.885Z,4.38
2023-02-03T20:57:51.473Z,3.95
2023-02-03T21:00:21.240Z,4.72
2023-02-03T21:03:08.638Z,6.05
2023-02-03T21:05:41.846Z,3.85
2023-02-03T21:08:15.551Z,5.47
2023-02-03T21:10:43.026Z,4.80
2023-02-03T21:13:21.300Z,4.70
2023-02-03T21:15:56.094Z,5.80
2023-02-03T21:18:52.097Z,6.35
2023-02-03T21:21:29.301Z,5.90
2023-02-03T21:23:56.013Z,6.32
2023-02-03T21:26:24.918Z,5.78
2023-02-03T21:28:59.502Z,5.25
2023-02-03T21:31:26.039Z,5.82
2023-02-03T21:33:54.701Z,5.65
2023-02-03T21:36:26.632Z,5.03
2023-02-03T21:41:25.313Z,5.13
2023-02-03T21:43:57.228Z,5.32
2023-02-03T21:48:57.521Z,6.32
2023-02-03T21:51:26.880Z,6.25
2023-02-03T21:54:27.647Z,5.97
2023-02-03T21:56:54.389Z,4.80
2023-02-03T21:59:33.275Z,6.55
2023-02-03T22:01:59.813Z,7.60
2023-02-03T22:04:28.299Z,4.13
2023-02-03T22:06:55.611Z,6.80
2023-02-03T22:09:27.107Z,5.88
2023-02-03T22:11:53.795Z,6.38
2023-02-03T22:14:23.672Z,5.95
2023-02-03T22:16:50.621Z,7.65
2023-02-03T22:19:17.554Z,6.60
2023-02-03T22:21:44.787Z,5.90
2023-02-03T22:24:11.277Z,6.00
2023-02-03T22:26:37.771Z,6.47
2023-02-03T22:29:05.523Z,6.35
2023-02-03T22:31:32.185Z,5.88
2023-02-03T22:33:58.733Z,5.38
2023-02-03T22:36:25.874Z,6.20
2023-02-03T22:38:52.924Z,6.38
2023-02-03T22:41:20.816Z,5.38
2023-02-03T22:43:47.834Z,6.85
2023-02-03T22:46:14.364Z,6.18
2023-02-03T22:48:40.929Z,6.88
2023-02-03T22:51:10.105Z,6.95
2023-02-03T22:53:41.373Z,6.70
2023-02-03T22:56:08.098Z,7.70
2023-02-03T22:58:37.889Z,8.02
2023-02-03T23:01:07.844Z,7.15
2023-02-03T23:03:44.281Z,6.93
2023-02-03T23:06:16.664Z,6.97
2023-02-03T23:08:43.134Z,7.30
2023-02-03T23:11:09.625Z,6.28
2023-02-03T23:13:36.139Z,7.15
2023-02-03T23:16:02.656Z,7.30
2023-02-03T23:18:29.230Z,5.53
2023-02-03T23:20:57.458Z,5.55
2023-02-03T23:23:23.981Z,4.85
2023-02-03T23:25:53.813Z,4.72
2023-02-03T23:28:20.420Z,2.53
2023-02-03T23:30:47.157Z,4.40
2023-02-03T23:33:13.726Z,4.25
2023-02-03T23:35:45.859Z,5.18
2023-02-03T23:38:16.987Z,4.95
2023-02-03T23:40:45.201Z,4.88
2023-02-03T23:43:15.359Z,5.72
2023-02-03T23:45:41.894Z,5.93
2023-02-03T23:48:08.643Z,5.50
2023-02-03T23:50:35.347Z,5.40
2023-02-03T23:53:01.887Z,5.55
2023-02-03T23:55:29.070Z,5.43
2023-02-03T23:57:55.554Z,5.88
